Time;durP1;ratioP1;P1;durP2;ratioP2;P2;SDS_P1;SDS_P2;PMS_P1;PMS_P2;Temp;Humidity;BMP_temperature;BMP_pressure;BME280_temperature;BME280_humidity;BME280_pressure;Samples;Min_cycle;Max_cycle;Signal;HPM_P1;HPM_P2
2021/03/03 00:00:57;;;;;;;10.25;6.32;;;;;;;2.80;58.78;99363.09;5016510;28;21060;-76
2021/03/03 00:03:25;;;;;;;10.18;6.18;;;;;;;2.76;58.87;99363.88;5017890;28;20211;-74
2021/03/03 00:05:51;;;;;;;11.00;6.07;;;;;;;2.73;59.02;99359.56;5015829;28;20247;-75
2021/03/03 00:08:17;;;;;;;10.43;6.38;;;;;;;2.73;58.99;99358.69;5019579;28;20265;-75
2021/03/03 00:10:43;;;;;;;10.63;5.70;;;;;;;2.73;59.38;99362.13;5016270;28;21056;-74
2021/03/03 00:13:09;;;;;;;9.88;5.60;;;;;;;2.73;59.64;99350.97;5014921;28;20204;-75
2021/03/03 00:15:36;;;;;;;10.43;5.90;;;;;;;2.70;59.54;99355.25;5015673;28;20230;-75
2021/03/03 00:18:02;;;;;;;9.70;5.95;;;;;;;2.65;59.59;99353.47;5020265;28;20754;-74
2021/03/03 00:20:29;;;;;;;11.77;6.10;;;;;;;2.64;59.43;99359.44;5016539;28;20301;-75
2021/03/03 00:22:55;;;;;;;8.75;5.57;;;;;;;2.62;59.53;99363.72;5018024;28;20219;-76
2021/03/03 00:25:22;;;;;;;8.95;5.68;;;;;;;2.58;59.66;99357.66;5018861;28;20215;-75
2021/03/03 00:27:48;;;;;;;8.70;5.90;;;;;;;2.53;59.74;99358.44;5017676;28;20928;-75
2021/03/03 00:30:15;;;;;;;10.60;6.07;;;;;;;2.50;59.89;99351.56;5017007;28;20679;-74
2021/03/03 00:32:42;;;;;;;11.93;6.57;;;;;;;2.54;59.95;99353.31;5019051;28;20219;-74
2021/03/03 00:35:08;;;;;;;10.80;6.75;;;;;;;2.56;59.92;99343.91;5016553;28;20245;-73
2021/03/03 00:37:36;;;;;;;12.30;7.03;;;;;;;2.57;59.79;99337.88;5017097;28;20211;-74
2021/03/03 00:40:03;;;;;;;12.55;6.57;;;;;;;2.62;59.80;99337.94;5021278;28;20250;-74
2021/03/03 00:42:29;;;;;;;11.70;6.63;;;;;;;2.65;60.10;99338.00;5018702;28;20239;-74
2021/03/03 00:44:55;;;;;;;11.48;7.13;;;;;;;2.64;59.96;99328.53;5018697;28;20223;-75
2021/03/03 00:47:22;;;;;;;9.47;5.83;;;;;;;2.63;59.90;99330.25;5017577;28;20245;-75
2021/03/03 00:49:48;;;;;;;11.68;5.82;;;;;;;2.48;60.15;99338.66;5018698;28;20226;-75
2021/03/03 00:52:14;;;;;;;12.30;6.55;;;;;;;2.39;60.59;99325.66;5016619;28;20239;-74
2021/03/03 00:54:43;;;;;;;11.17;6.30;;;;;;;2.39;60.37;99323.06;5018329;28;20218;-76
2021/03/03 00:57:09;;;;;;;9.85;6.03;;;;;;;2.43;59.98;99321.41;5018352;28;20254;-75
2021/03/03 00:59:35;;;;;;;9.98;5.40;;;;;;;2.45;60.26;99312.84;5016023;28;20238;-74
2021/03/03 01:02:02;;;;;;;11.13;6.10;;;;;;;2.43;60.37;99322.25;5016906;28;20249;-75
2021/03/03 01:04:28;;;;;;;9.00;5.43;;;;;;;2.42;59.97;99314.50;5017555;28;20241;-74
2021/03/03 01:06:54;;;;;;;12.75;6.63;;;;;;;2.41;60.17;99311.09;5013900;28;20249;-74
2021/03/03 01:09:21;;;;;;;11.45;6.47;;;;;;;2.38;60.42;99313.59;5018862;28;20218;-74
2021/03/03 01:12:19;;;;;;;9.45;5.95;;;;;;;2.41;60.01;99307.63;5016786;28;20251;-74
2021/03/03 01:14:45;;;;;;;8.90;5.97;;;;;;;2.34;60.26;99311.00;5018212;28;20210;-75
2021/03/03 01:17:11;;;;;;;11.07;5.90;;;;;;;2.28;60.58;99301.47;5016064;28;20399;-73
2021/03/03 01:22:13;;;;;;;10.40;5.37;;;;;;;2.22;60.78;99303.94;5482408;22;20477;-73
2021/03/03 01:24:40;;;;;;;9.05;5.47;;;;;;;2.27;60.73;99304.88;5001787;28;20225;-74
2021/03/03 01:27:06;;;;;;;9.27;5.47;;;;;;;2.28;60.84;99292.03;5007858;28;20283;-74
2021/03/03 01:29:33;;;;;;;10.60;6.10;;;;;;;2.25;60.88;99298.84;5005598;28;20213;-73
2021/03/03 01:31:59;;;;;;;8.93;5.97;;;;;;;2.20;60.95;99297.91;5005001;28;20246;-73
2021/03/03 01:34:25;;;;;;;10.75;5.90;;;;;;;2.19;60.87;99297.06;5004930;28;20208;-74
2021/03/03 01:36:51;;;;;;;10.97;5.60;;;;;;;2.14;61.27;99303.00;5006354;28;20244;-76
2021/03/03 01:39:17;;;;;;;11.53;6.10;;;;;;;2.12;61.24;99306.41;5004804;28;20764;-75
2021/03/03 01:41:43;;;;;;;10.83;6.10;;;;;;;2.09;61.32;99310.63;5004494;28;20872;-75
2021/03/03 01:44:09;;;;;;;9.53;5.63;;;;;;;2.04;61.36;99313.16;5007166;28;20692;-74
2021/03/03 01:46:36;;;;;;;11.70;6.13;;;;;;;2.04;61.72;99309.69;5005695;28;21183;-73
2021/03/03 01:49:02;;;;;;;10.77;6.00;;;;;;;1.99;61.66;99299.34;5005175;28;20745;-72
2021/03/03 01:51:29;;;;;;;8.70;5.10;;;;;;;2.07;61.56;99312.34;5008221;28;20261;-75
2021/03/03 01:53:55;;;;;;;11.73;6.03;;;;;;;2.06;61.42;99308.91;5009202;28;20696;-73
2021/03/03 01:56:22;;;;;;;10.80;6.30;;;;;;;2.09;61.68;99311.50;5007549;28;20301;-74
2021/03/03 01:58:48;;;;;;;11.57;6.57;;;;;;;2.10;61.27;99305.50;5008657;28;20834;-73
2021/03/03 02:01:14;;;;;;;8.70;5.55;;;;;;;2.07;61.59;99308.03;5007190;28;20239;-73
2021/03/03 02:03:41;;;;;;;12.60;6.20;;;;;;;2.05;61.59;99299.44;5001971;28;20214;-75
2021/03/03 02:06:12;;;;;;;8.50;5.83;;;;;;;2.03;61.76;99295.97;5005874;28;20586;-75
2021/03/03 02:08:42;;;;;;;8.90;5.60;;;;;;;2.03;61.76;99295.97;5006271;28;20297;-74
2021/03/03 02:11:12;;;;;;;10.33;5.77;;;;;;;1.97;61.53;99293.31;5009600;28;20297;-74
2021/03/03 02:13:41;;;;;;;9.77;5.23;;;;;;;1.94;61.75;99290.69;5005836;28;20223;-75
2021/03/03 02:16:09;;;;;;;10.93;6.10;;;;;;;1.95;61.61;99300.16;5007438;28;20783;-75
2021/03/03 02:18:36;;;;;;;9.63;5.47;;;;;;;1.96;61.82;99303.59;5006250;28;20745;-73
2021/03/03 02:21:09;;;;;;;11.82;5.18;;;;;;;1.93;61.48;99299.28;5009002;28;20249;-75
2021/03/03 02:23:43;;;;;;;10.80;5.40;;;;;;;1.91;61.70;99300.94;5008245;28;20238;-74
2021/03/03 02:26:10;;;;;;;10.02;5.88;;;;;;;1.89;61.80;99300.06;5007317;28;20266;-74
2021/03/03 02:28:36;;;;;;;10.77;6.00;;;;;;;1.89;61.90;99303.53;5008187;28;20207;-74
2021/03/03 02:31:03;;;;;;;10.77;5.88;;;;;;;1.86;62.18;99294.88;5008576;28;20763;-73
2021/03/03 02:33:30;;;;;;;12.33;6.60;;;;;;;1.85;61.90;99298.28;5008260;28;20229;-74
2021/03/03 02:35:56;;;;;;;11.10;5.90;;;;;;;1.83;62.01;99302.53;5005722;28;20242;-74
2021/03/03 02:38:23;;;;;;;11.63;6.07;;;;;;;1.80;62.32;99302.50;5007748;28;20246;-74
2021/03/03 02:40:49;;;;;;;11.07;6.23;;;;;;;1.77;62.37;99307.63;5005130;28;20716;-73
2021/03/03 02:43:18;;;;;;;12.27;6.50;;;;;;;1.76;62.17;99303.28;5009875;28;20229;-75
2021/03/03 02:45:45;;;;;;;14.07;6.97;;;;;;;1.69;62.76;99303.22;5006868;28;20246;-76
2021/03/03 02:48:12;;;;;;;9.20;6.17;;;;;;;1.69;62.60;99299.75;5009584;28;20223;-76
2021/03/03 02:50:38;;;;;;;13.40;6.55;;;;;;;1.66;62.46;99300.59;5006097;28;20231;-73
2021/03/03 02:53:04;;;;;;;11.93;7.00;;;;;;;1.63;62.65;99300.53;5008362;28;20241;-74
2021/03/03 02:55:30;;;;;;;11.33;6.10;;;;;;;1.64;62.75;99306.56;5006765;28;20792;-73
2021/03/03 02:57:57;;;;;;;10.93;6.37;;;;;;;1.62;62.67;99309.09;5008986;28;20223;-75
2021/03/03 03:00:27;;;;;;;12.13;5.80;;;;;;;1.60;62.76;99304.75;5007689;28;20243;-74
2021/03/03 03:02:58;;;;;;;9.97;6.13;;;;;;;1.54;62.57;99302.94;5006301;28;20240;-75
2021/03/03 03:05:25;;;;;;;12.87;6.60;;;;;;;1.51;62.76;99295.22;5007458;28;20222;-73
2021/03/03 03:07:53;;;;;;;10.33;6.30;;;;;;;1.54;62.59;99300.38;5007894;28;20226;-74
2021/03/03 03:10:20;;;;;;;10.97;6.13;;;;;;;1.55;63.00;99302.13;5008129;28;20650;-73
2021/03/03 03:12:50;;;;;;;12.30;6.70;;;;;;;1.53;63.07;99298.66;5007511;28;20608;-75
2021/03/03 03:15:18;;;;;;;12.70;6.60;;;;;;;1.51;62.99;99295.22;5007030;28;20233;-74
2021/03/03 03:17:46;;;;;;;10.93;6.43;;;;;;;1.48;63.28;99290.00;5007487;28;20220;-74
2021/03/03 03:20:15;;;;;;;10.27;6.10;;;;;;;1.51;62.91;99288.34;5008831;28;20312;-75
2021/03/03 03:22:42;;;;;;;11.80;7.20;;;;;;;1.49;63.14;99291.72;5007667;28;20239;-73
2021/03/03 03:25:10;;;;;;;12.73;6.55;;;;;;;1.48;63.43;99290.00;5010047;28;20220;-75
2021/03/03 03:27:37;;;;;;;10.97;6.20;;;;;;;1.48;63.38;99290.00;5010959;28;20931;-75
2021/03/03 03:30:05;;;;;;;11.18;6.45;;;;;;;1.40;64.09;99289.00;5010600;28;20211;-75
2021/03/03 03:32:31;;;;;;;9.80;6.10;;;;;;;1.38;63.55;99288.09;5010574;28;20272;-74
2021/03/03 03:34:59;;;;;;;8.93;6.07;;;;;;;1.33;63.74;99288.91;5012208;28;20220;-73
2021/03/03 03:37:27;;;;;;;11.67;7.33;;;;;;;1.29;64.04;99288.84;5009323;28;20231;-73
2021/03/03 03:40:43;;;;;;;11.07;6.30;;;;;;;1.27;63.99;99296.53;5009690;28;20238;-75
2021/03/03 03:43:12;;;;;;;11.23;6.67;;;;;;;1.24;64.46;99305.88;4919412;29;20246;-74
2021/03/03 03:45:39;;;;;;;11.47;6.47;;;;;;;1.22;64.15;99303.28;4927762;28;20246;-74
2021/03/03 03:48:06;;;;;;;12.30;6.83;;;;;;;1.26;64.37;99299.91;4991899;28;20237;-75
2021/03/03 03:50:33;;;;;;;11.02;6.68;;;;;;;1.27;64.30;99304.25;5010762;28;20234;-74
2021/03/03 03:53:00;;;;;;;13.13;6.87;;;;;;;1.28;64.15;99303.38;5011365;28;20774;-76
2021/03/03 03:55:32;;;;;;;14.27;7.10;;;;;;;1.28;64.88;99303.38;5010891;28;20223;-75
2021/03/03 03:57:58;;;;;;;11.93;6.87;;;;;;;1.25;64.43;99298.22;5012323;28;20225;-75
2021/03/03 04:00:25;;;;;;;13.47;7.20;;;;;;;1.25;64.35;99298.22;5010963;28;20238;-74
2021/03/03 04:02:51;;;;;;;12.83;6.67;;;;;;;1.25;64.68;99293.06;5011321;28;20243;-74
2021/03/03 04:05:18;;;;;;;15.40;7.50;;;;;;;1.25;64.64;99298.22;5011620;28;20211;-73
2021/03/03 04:07:45;;;;;;;15.57;7.73;;;;;;;1.28;64.73;99297.38;5010424;28;20217;-73
2021/03/03 04:10:13;;;;;;;15.52;7.57;;;;;;;1.30;64.90;99295.69;5009952;28;20215;-74
2021/03/03 04:12:39;;;;;;;15.33;7.93;;;;;;;1.31;64.43;99300.88;5008256;28;20235;-73
2021/03/03 04:15:07;;;;;;;16.70;7.67;;;;;;;1.32;65.20;99294.91;5012361;28;20208;-74
2021/03/03 04:17:33;;;;;;;15.30;7.90;;;;;;;1.29;64.83;99299.97;5010411;28;20238;-73
2021/03/03 04:19:59;;;;;;;16.43;8.27;;;;;;;1.28;65.42;99300.81;5011464;28;20235;-73
2021/03/03 04:22:25;;;;;;;14.27;7.30;;;;;;;1.28;65.11;99300.81;5010026;28;20246;-73
2021/03/03 04:24:51;;;;;;;14.53;7.40;;;;;;;1.24;65.54;99296.47;5010207;28;20218;-73
2021/03/03 04:27:17;;;;;;;14.07;7.70;;;;;;;1.24;65.14;99296.47;5011034;28;20242;-74
2021/03/03 04:29:44;;;;;;;13.50;7.33;;;;;;;1.18;66.04;99291.22;5009901;28;20214;-75
2021/03/03 04:32:10;;;;;;;14.10;7.87;;;;;;;1.17;66.04;99289.47;5010607;28;20259;-74
2021/03/03 04:34:36;;;;;;;13.73;7.20;;;;;;;1.20;66.01;99294.69;5009890;28;20220;-74
2021/03/03 04:37:02;;;;;;;13.60;8.03;;;;;;;1.22;65.36;99293.00;5010471;28;20244;-75
2021/03/03 04:39:28;;;;;;;15.53;8.43;;;;;;;1.24;65.48;99287.91;5009723;28;20246;-74
2021/03/03 04:41:55;;;;;;;15.00;8.43;;;;;;;1.23;65.53;99284.47;5009653;28;20243;-75
2021/03/03 04:44:21;;;;;;;14.80;8.33;;;;;;;1.19;65.61;99282.66;5011252;28;20297;-74
2021/03/03 04:46:47;;;;;;;15.63;8.77;;;;;;;1.21;66.10;99278.41;5009369;28;20235;-75
2021/03/03 04:49:13;;;;;;;15.23;8.33;;;;;;;1.18;66.06;99274.91;5009331;28;20270;-75
2021/03/03 04:51:40;;;;;;;15.73;8.83;;;;;;;1.17;66.08;99276.63;5009920;28;20896;-73
2021/03/03 04:54:06;;;;;;;16.73;8.37;;;;;;;1.16;65.99;99272.34;5012046;28;20225;-74
2021/03/03 04:56:32;;;;;;;15.10;7.87;;;;;;;1.16;65.78;99267.22;5009297;28;20773;-74
2021/03/03 04:58:59;;;;;;;15.90;8.80;;;;;;;1.21;65.77;99282.69;5010705;28;20243;-74
2021/03/03 05:01:25;;;;;;;15.47;8.43;;;;;;;1.21;65.78;99275.84;5009037;28;20763;-73
2021/03/03 05:03:51;;;;;;;14.27;7.90;;;;;;;1.17;65.79;99265.50;5010990;28;20226;-75
2021/03/03 05:06:17;;;;;;;18.67;8.83;;;;;;;1.18;66.37;99257.81;5010953;28;20242;-74
2021/03/03 05:08:43;;;;;;;17.47;8.93;;;;;;;1.15;66.51;99250.91;5009265;28;20211;-73
2021/03/03 05:11:09;;;;;;;17.40;8.83;;;;;;;1.15;66.22;99250.03;5010011;28;20739;-76
2021/03/03 05:13:35;;;;;;;18.03;9.37;;;;;;;1.16;66.04;99246.66;5009456;28;20781;-73
2021/03/03 05:16:02;;;;;;;17.37;8.67;;;;;;;1.17;66.35;99245.78;5010281;28;20243;-75
2021/03/03 05:18:28;;;;;;;16.03;8.83;;;;;;;1.18;66.09;99250.09;5009070;28;20786;-73
2021/03/03 05:20:54;;;;;;;18.27;9.30;;;;;;;1.19;66.53;99250.97;5009015;28;20811;-73
2021/03/03 05:23:28;;;;;;;19.43;9.67;;;;;;;1.23;66.33;99248.47;5010875;28;20223;-73
2021/03/03 05:25:54;;;;;;;16.10;8.67;;;;;;;1.21;66.35;99245.00;5008333;28;20239;-75
2021/03/03 05:28:20;;;;;;;16.87;8.67;;;;;;;1.17;66.40;99240.66;5009033;28;20273;-73
2021/03/03 05:30:46;;;;;;;17.17;9.23;;;;;;;1.20;66.85;99248.41;5008542;28;20239;-74
2021/03/03 05:33:13;;;;;;;17.97;8.73;;;;;;;1.21;66.24;99239.00;5010841;28;20243;-75
2021/03/03 05:35:39;;;;;;;17.77;9.80;;;;;;;1.22;67.08;99241.59;5005977;28;20239;-75
2021/03/03 05:38:05;;;;;;;17.17;9.20;;;;;;;1.23;66.93;99238.19;5010387;28;20699;-73
2021/03/03 05:40:31;;;;;;;17.23;8.67;;;;;;;1.24;66.74;99239.91;5007781;28;20245;-73
2021/03/03 05:42:58;;;;;;;17.47;9.93;;;;;;;1.28;66.97;99251.13;5009828;28;20238;-74
2021/03/03 05:45:24;;;;;;;18.70;10.10;;;;;;;1.29;66.44;99252.84;5009100;28;20221;-75
2021/03/03 05:47:51;;;;;;;20.57;10.30;;;;;;;1.26;66.77;99252.78;5009576;28;20215;-74
2021/03/03 05:50:19;;;;;;;18.43;9.43;;;;;;;1.28;67.05;99256.25;5006203;28;20383;-73
2021/03/03 05:52:45;;;;;;;17.50;9.40;;;;;;;1.24;67.03;99259.63;5012128;28;20239;-75
2021/03/03 05:55:13;;;;;;;18.67;9.43;;;;;;;1.15;66.78;99250.91;5009472;28;20211;-74
2021/03/03 05:57:39;;;;;;;18.10;9.10;;;;;;;1.14;67.16;99250.91;5005859;28;20215;-74
2021/03/03 06:00:07;;;;;;;17.57;9.50;;;;;;;1.22;67.24;99257.03;5010797;28;20928;-74
2021/03/03 06:02:33;;;;;;;18.00;9.63;;;;;;;1.29;66.99;99258.00;5006136;28;20227;-73
2021/03/03 06:04:59;;;;;;;16.02;8.90;;;;;;;1.33;66.52;99260.63;5013833;28;20237;-73
2021/03/03 06:07:27;;;;;;;17.60;9.57;;;;;;;1.38;66.38;99263.28;5009379;28;20235;-73
2021/03/03 06:09:53;;;;;;;19.17;9.80;;;;;;;1.43;66.81;99265.91;5011505;28;20216;-75
2021/03/03 06:12:22;;;;;;;18.70;9.83;;;;;;;1.48;66.24;99269.44;5013092;28;20258;-75
2021/03/03 06:14:48;;;;;;;17.27;9.20;;;;;;;1.54;66.54;99267.84;5009495;28;20227;-73
2021/03/03 06:17:14;;;;;;;22.63;10.17;;;;;;;1.63;66.17;99268.81;5013025;28;20307;-73
2021/03/03 06:19:40;;;;;;;18.00;9.67;;;;;;;1.63;66.52;99269.66;5011505;28;20887;-75
2021/03/03 06:22:24;;;;;;;17.13;8.77;;;;;;;1.69;65.96;99279.16;5008956;28;20254;-74
2021/03/03 06:24:51;;;;;;;19.10;10.00;;;;;;;1.71;65.97;99275.81;5009373;28;20211;-76
2021/03/03 06:27:21;;;;;;;18.07;9.90;;;;;;;1.77;65.86;99261.31;5010845;28;20241;-75
2021/03/03 06:30:07;;;;;;;18.87;9.80;;;;;;;1.90;65.77;99263.19;5010425;28;20225;-75
2021/03/03 06:32:55;;;;;;;15.40;9.20;;;;;;;1.96;65.39;99263.28;5008589;28;20602;-73
2021/03/03 06:35:22;;;;;;;16.30;9.00;;;;;;;1.98;65.90;99261.59;5010534;28;20214;-74
2021/03/03 06:37:53;;;;;;;15.67;9.17;;;;;;;2.01;65.88;99260.78;5009438;28;20220;-74
2021/03/03 06:40:21;;;;;;;20.85;10.20;;;;;;;2.03;66.07;99270.25;5009867;28;20235;-73
2021/03/03 06:42:47;;;;;;;19.23;9.70;;;;;;;2.05;66.00;99272.84;5010883;28;20244;-73
2021/03/03 06:45:25;;;;;;;16.77;9.30;;;;;;;2.11;65.95;99276.38;5009934;28;20699;-75
2021/03/03 06:47:51;;;;;;;18.80;9.98;;;;;;;2.16;66.03;99260.13;5011439;28;20242;-73
2021/03/03 06:50:18;;;;;;;19.40;9.47;;;;;;;2.24;65.83;99263.63;5012195;28;20728;-73
2021/03/03 06:52:45;;;;;;;19.63;10.33;;;;;;;2.29;65.92;99257.69;5009793;28;20239;-74
2021/03/03 06:55:12;;;;;;;16.77;9.70;;;;;;;2.39;65.83;99269.00;5011182;28;20229;-74
2021/03/03 06:57:40;;;;;;;19.27;10.40;;;;;;;2.44;65.72;99267.31;5009857;28;20306;-75
2021/03/03 07:00:08;;;;;;;18.13;10.43;;;;;;;2.53;65.72;99268.28;5010712;28;20258;-74
2021/03/03 07:02:34;;;;;;;20.65;11.13;;;;;;;2.60;65.73;99267.50;5015002;28;20233;-74
2021/03/03 07:05:02;;;;;;;22.60;11.20;;;;;;;2.68;65.71;99274.50;5015910;28;20222;-75
2021/03/03 07:07:28;;;;;;;21.93;11.23;;;;;;;2.77;65.50;99268.56;5013569;28;20243;-75
2021/03/03 07:09:58;;;;;;;22.83;10.50;;;;;;;2.84;65.66;99267.78;5016037;28;20216;-74
2021/03/03 07:12:26;;;;;;;22.60;11.70;;;;;;;2.89;65.87;99260.97;5012184;28;20239;-75
2021/03/03 07:14:58;;;;;;;21.97;10.97;;;;;;;2.98;65.75;99264.47;5012527;28;20224;-73
2021/03/03 07:17:24;;;;;;;23.15;11.60;;;;;;;3.06;65.42;99265.41;5014337;28;20234;-75
2021/03/03 07:19:52;;;;;;;25.55;12.00;;;;;;;3.15;65.54;99265.50;5013440;28;20642;-74
2021/03/03 07:22:24;;;;;;;19.45;11.35;;;;;;;3.27;65.34;99272.47;5013779;28;20333;-74
2021/03/03 07:24:55;;;;;;;21.75;12.18;;;;;;;3.34;65.19;99268.25;5014224;28;20212;-73
2021/03/03 07:27:21;;;;;;;19.30;11.75;;;;;;;3.43;65.36;99276.06;5013430;28;20262;-74
2021/03/03 07:29:49;;;;;;;23.23;12.55;;;;;;;3.52;65.28;99270.97;5013747;28;20214;-73
2021/03/03 07:32:17;;;;;;;21.05;11.93;;;;;;;3.59;64.88;99270.16;5011301;28;20258;-74
2021/03/03 07:34:46;;;;;;;22.73;12.75;;;;;;;3.67;65.27;99268.47;5013227;28;20228;-77
2021/03/03 07:37:12;;;;;;;26.00;12.67;;;;;;;3.81;64.90;99278.06;5014570;28;20239;-75
2021/03/03 07:39:40;;;;;;;25.45;13.55;;;;;;;3.91;64.81;99266.94;5012962;28;20712;-75
2021/03/03 07:43:09;;;;;;;22.50;12.15;;;;;;;4.03;64.96;99272.16;5101385;27;20520;-74
2021/03/03 07:45:36;;;;;;;26.08;13.48;;;;;;;4.15;64.48;99273.94;5082145;27;20312;-74
2021/03/03 07:48:06;;;;;;;27.05;14.23;;;;;;;4.27;64.88;99275.75;5051250;28;20866;-77
2021/03/03 07:50:33;;;;;;;24.17;13.63;;;;;;;4.38;64.80;99276.66;5047246;28;20237;-75
2021/03/03 07:52:59;;;;;;;26.90;13.98;;;;;;;4.49;64.11;99270.69;5049820;28;20340;-75
2021/03/03 07:55:25;;;;;;;22.15;12.20;;;;;;;4.56;64.69;99282.78;5050404;28;20213;-77
2021/03/03 07:57:53;;;;;;;23.13;13.02;;;;;;;4.63;64.54;99287.06;5050781;28;20231;-76
2021/03/03 08:00:24;;;;;;;29.25;14.68;;;;;;;4.76;64.06;99283.69;5050579;28;20240;-75
2021/03/03 08:02:52;;;;;;;26.50;13.43;;;;;;;4.86;63.83;99278.53;5050472;28;20340;-75
2021/03/03 08:05:27;;;;;;;28.65;14.18;;;;;;;4.95;63.92;99281.16;5047986;28;20226;-75
2021/03/03 08:08:23;;;;;;;23.70;13.73;;;;;;;5.04;64.00;99276.00;5050114;28;20214;-76
2021/03/03 08:10:50;;;;;;;24.58;13.57;;;;;;;5.20;64.11;99272.56;5049129;28;20233;-77
2021/03/03 08:13:17;;;;;;;25.95;14.50;;;;;;;5.33;63.93;99268.28;5050993;28;20237;-76
2021/03/03 08:15:45;;;;;;;25.40;14.55;;;;;;;5.41;63.49;99268.25;5049110;28;20232;-75
2021/03/03 08:18:23;;;;;;;28.95;14.80;;;;;;;5.58;63.85;99266.53;5050972;28;20257;-76
2021/03/03 08:20:50;;;;;;;28.02;14.55;;;;;;;5.67;63.49;99263.06;5048625;28;20252;-76
2021/03/03 08:23:42;;;;;;;31.25;14.88;;;;;;;5.88;62.90;99257.03;5049191;28;20605;-76
2021/03/03 08:26:11;;;;;;;34.17;15.57;;;;;;;5.95;63.28;99263.03;5048126;28;20252;-76
2021/03/03 08:28:38;;;;;;;32.10;15.20;;;;;;;6.00;62.84;99263.06;5051084;28;20601;-75
2021/03/03 08:31:30;;;;;;;23.85;15.80;;;;;;;6.16;62.80;99256.97;5047365;28;20420;-75
2021/03/03 08:34:01;;;;;;;26.05;15.55;;;;;;;6.18;62.96;99260.44;5049676;28;20221;-74
2021/03/03 08:36:48;;;;;;;25.38;14.85;;;;;;;6.38;62.80;99260.34;5048193;28;20238;-77
2021/03/03 08:39:34;;;;;;;35.97;15.52;;;;;;;6.57;62.11;99268.91;5050427;28;20778;-75
2021/03/03 08:42:03;;;;;;;29.80;16.10;;;;;;;6.69;62.19;99260.19;5048856;28;20257;-77
2021/03/03 08:44:29;;;;;;;27.55;15.35;;;;;;;6.80;61.94;99266.22;5048733;28;20315;-75
2021/03/03 08:46:56;;;;;;;26.98;15.23;;;;;;;6.83;61.63;99258.41;5046925;28;20241;-75
2021/03/03 08:49:30;;;;;;;29.67;15.75;;;;;;;6.91;61.59;99263.53;5049309;28;20324;-76
2021/03/03 08:52:12;;;;;;;26.80;15.27;;;;;;;7.00;61.52;99268.66;5047268;28;20234;-76
2021/03/03 08:54:43;;;;;;;28.00;15.45;;;;;;;7.05;61.29;99261.72;5035060;28;20342;-76
2021/03/03 08:57:33;;;;;;;27.83;15.38;;;;;;;7.20;61.13;99265.94;5034569;28;20239;-75
2021/03/03 09:00:05;;;;;;;29.05;15.80;;;;;;;7.29;60.72;99262.44;5031863;28;20841;-76
2021/03/03 09:02:38;;;;;;;32.80;16.98;;;;;;;7.34;60.66;99258.06;5034910;28;20540;-75
2021/03/03 09:05:12;;;;;;;27.45;16.02;;;;;;;7.45;60.80;99255.38;5035023;28;20337;-77
2021/03/03 09:07:38;;;;;;;27.52;15.07;;;;;;;7.53;61.19;99250.97;5034662;28;20234;-76
2021/03/03 09:10:10;;;;;;;26.73;16.35;;;;;;;7.77;61.19;99247.28;5034103;28;20214;-76
2021/03/03 09:12:40;;;;;;;26.88;15.63;;;;;;;8.06;60.77;99246.13;5035195;28;20231;-74
2021/03/03 09:15:09;;;;;;;30.00;15.82;;;;;;;8.23;60.29;99244.19;5036245;28;20290;-77
2021/03/03 09:17:36;;;;;;;26.30;15.68;;;;;;;8.20;59.46;99241.66;5036639;28;20222;-75
2021/03/03 09:20:05;;;;;;;29.33;16.50;;;;;;;8.24;59.24;99240.72;5035604;28;20218;-77
2021/03/03 09:22:33;;;;;;;28.73;17.58;;;;;;;8.46;59.90;99233.56;5035554;28;20242;-76
2021/03/03 09:25:06;;;;;;;28.92;16.15;;;;;;;8.62;58.99;99229.03;5035987;28;20234;-74
2021/03/03 09:27:32;;;;;;;30.55;15.40;;;;;;;8.79;58.96;99235.75;5034694;28;20244;-76
2021/03/03 09:29:58;;;;;;;30.75;16.15;;;;;;;8.96;58.83;99231.16;5035647;28;20612;-75
2021/03/03 09:32:24;;;;;;;28.40;17.48;;;;;;;9.09;58.17;99226.63;5034474;28;20381;-76
2021/03/03 09:34:54;;;;;;;26.20;16.40;;;;;;;9.35;57.40;99231.41;5035171;28;20230;-75
2021/03/03 09:37:21;;;;;;;26.55;15.77;;;;;;;9.52;57.63;99228.53;5034269;28;20423;-75
2021/03/03 09:39:52;;;;;;;24.70;15.88;;;;;;;9.69;57.30;99225.63;5035263;28;20214;-77
2021/03/03 09:42:18;;;;;;;30.05;16.85;;;;;;;9.79;57.19;99227.16;5032807;28;20234;-76
2021/03/03 09:44:50;;;;;;;27.63;15.90;;;;;;;9.94;56.87;99228.63;5035629;28;20218;-75
2021/03/03 09:47:27;;;;;;;31.10;17.02;;;;;;;10.07;56.27;99225.81;5035562;28;20535;-76
2021/03/03 09:49:55;;;;;;;27.48;16.50;;;;;;;10.13;56.10;99221.34;5035540;28;20222;-76
2021/03/03 09:52:22;;;;;;;28.75;17.25;;;;;;;10.32;56.07;99226.22;5035269;28;20245;-76
2021/03/03 09:54:48;;;;;;;27.27;16.40;;;;;;;10.44;55.19;99215.53;5035046;28;20218;-78
2021/03/03 09:57:20;;;;;;;28.80;16.63;;;;;;;10.58;55.26;99228.28;5035317;28;20233;-75
2021/03/03 09:59:47;;;;;;;28.95;16.85;;;;;;;10.78;54.82;99220.88;5035750;28;20214;-77
2021/03/03 10:02:17;;;;;;;28.58;16.80;;;;;;;11.03;54.05;99224.66;5034449;28;20246;-76
2021/03/03 10:04:44;;;;;;;29.85;17.40;;;;;;;11.27;53.90;99220.66;5033112;28;20218;-76
2021/03/03 10:07:13;;;;;;;30.70;17.90;;;;;;;11.48;53.15;99222.69;5035419;28;20487;-76
2021/03/03 10:09:44;;;;;;;31.25;17.58;;;;;;;11.61;52.81;99212.78;5034259;28;20222;-77
2021/03/03 10:12:12;;;;;;;26.92;17.30;;;;;;;11.68;53.25;99216.97;5032741;28;20242;-75
2021/03/03 10:14:56;;;;;;;26.48;16.92;;;;;;;11.85;52.64;99216.50;5033150;28;20219;-75
2021/03/03 10:17:31;;;;;;;30.20;17.30;;;;;;;11.79;52.39;99206.22;5034049;28;20320;-75
2021/03/03 10:19:57;;;;;;;26.55;17.30;;;;;;;11.70;52.88;99209.94;5032638;28;20686;-78
2021/03/03 10:22:25;;;;;;;27.13;17.33;;;;;;;11.80;53.34;99214.94;5034148;28;20730;-77
2021/03/03 10:25:03;;;;;;;28.52;17.98;;;;;;;11.81;52.88;99219.28;5034396;28;20277;-77
2021/03/03 10:27:36;;;;;;;30.35;17.73;;;;;;;11.85;52.42;99218.28;5033395;28;20245;-75
2021/03/03 10:30:24;;;;;;;27.70;17.48;;;;;;;11.77;52.89;99229.78;5034854;28;20226;-76
2021/03/03 10:32:52;;;;;;;28.63;17.52;;;;;;;11.69;52.85;99226.53;5034253;28;20302;-75
2021/03/03 10:35:19;;;;;;;38.60;27.02;;;;;;;11.75;52.64;99226.38;5033339;28;20218;-76
2021/03/03 10:37:46;;;;;;;30.13;19.38;;;;;;;11.75;52.38;99215.91;5034087;28;20217;-75
2021/03/03 10:40:14;;;;;;;30.13;17.75;;;;;;;11.76;53.38;99206.31;5034265;28;20461;-77
2021/03/03 10:42:40;;;;;;;26.30;17.27;;;;;;;11.66;53.53;99225.75;5033779;28;20703;-75
2021/03/03 10:45:17;;;;;;;26.15;16.88;;;;;;;11.52;53.48;99223.47;5034313;28;20229;-75
2021/03/03 10:47:45;;;;;;;27.65;16.95;;;;;;;11.41;52.92;99225.50;5032852;28;20297;-78
2021/03/03 10:50:12;;;;;;;37.08;17.85;;;;;;;11.37;53.52;99228.19;5033899;28;20226;-76
2021/03/03 10:52:40;;;;;;;27.83;17.35;;;;;;;11.38;53.50;99218.63;5033440;28;20255;-76
2021/03/03 10:55:22;;;;;;;23.98;16.65;;;;;;;11.49;53.19;99220.97;5032917;28;20214;-76
2021/03/03 10:58:13;;;;;;;25.27;16.88;;;;;;;11.55;53.01;99220.81;5032350;28;20321;-76
2021/03/03 11:00:54;;;;;;;27.83;18.33;;;;;;;11.54;52.70;99226.91;5029862;28;20876;-77
2021/03/03 11:03:20;;;;;;;28.70;17.85;;;;;;;11.47;53.30;99226.22;5033104;28;20234;-75
2021/03/03 11:05:50;;;;;;;29.08;17.20;;;;;;;11.46;53.15;99223.66;5033088;28;21068;-75
2021/03/03 11:08:17;;;;;;;30.75;17.75;;;;;;;11.52;53.37;99223.47;5033099;28;20214;-77
2021/03/03 11:10:44;;;;;;;25.98;16.33;;;;;;;11.50;53.20;99218.28;5032668;28;20617;-75
2021/03/03 11:13:10;;;;;;;26.13;16.65;;;;;;;11.48;53.35;99216.63;5034515;28;20326;-75
2021/03/03 11:15:39;;;;;;;25.38;16.67;;;;;;;11.49;53.05;99208.75;5032545;28;20723;-76
2021/03/03 11:18:06;;;;;;;27.85;16.58;;;;;;;11.46;53.47;99207.97;5032371;28;20257;-76
2021/03/03 11:20:32;;;;;;;29.02;17.02;;;;;;;11.44;53.19;99210.63;5032651;28;20234;-75
2021/03/03 11:22:58;;;;;;;27.63;16.73;;;;;;;11.45;53.29;99214.06;5033497;28;20649;-75
2021/03/03 11:25:24;;;;;;;27.70;17.02;;;;;;;11.47;52.72;99215.78;5030832;28;20242;-76
2021/03/03 11:27:51;;;;;;;28.85;17.55;;;;;;;11.56;53.16;99205.09;5033847;28;20232;-75
2021/03/03 11:30:18;;;;;;;28.20;17.13;;;;;;;11.66;53.15;99200.47;5032043;28;20214;-77
2021/03/03 11:32:44;;;;;;;29.25;16.48;;;;;;;11.92;52.34;99191.09;5032959;28;21052;-75
2021/03/03 11:35:11;;;;;;;28.55;16.63;;;;;;;12.20;51.84;99179.88;5033794;28;20219;-77
2021/03/03 11:37:37;;;;;;;26.15;16.73;;;;;;;12.29;51.59;99174.38;5032599;28;20225;-77
2021/03/03 11:40:05;;;;;;;23.80;17.58;;;;;;;12.33;51.17;99171.63;5033596;28;20309;-76